createdAt,value
2022-12-08T00:00:08.182Z,10.7
2022-12-08T00:04:15.778Z,16.1
2022-12-08T00:06:19.561Z,8.5
2022-12-08T00:08:23.357Z,10.2
2022-12-08T00:10:47.677Z,11.6
2022-12-08T00:12:33.796Z,16.8
2022-12-08T00:14:37.573Z,18.9
2022-12-08T00:16:41.418Z,12.7
2022-12-08T00:18:45.103Z,15.7
2022-12-08T00:20:48.878Z,10.4
2022-12-08T00:22:52.691Z,15.4
2022-12-08T00:24:59.400Z,13.1
2022-12-08T00:27:03.172Z,14.9
2022-12-08T00:29:06.953Z,12.2
2022-12-08T00:31:10.775Z,11.6
2022-12-08T00:33:14.556Z,19.4
2022-12-08T00:35:18.357Z,17.3
2022-12-08T00:37:22.144Z,14.8
2022-12-08T00:39:28.849Z,22.2
2022-12-08T00:41:32.672Z,25
2022-12-08T00:43:36.469Z,15.8
2022-12-08T00:48:47.434Z,27.1
2022-12-08T00:50:51.201Z,21.3
2022-12-08T00:52:57.937Z,16.4
2022-12-08T00:55:01.716Z,16.4
2022-12-08T00:59:09.309Z,18.9
2022-12-08T01:01:14.117Z,19.6
2022-12-08T01:03:17.766Z,19.4
2022-12-08T01:05:21.430Z,23.4
2022-12-08T01:07:28.133Z,17.6
2022-12-08T01:09:31.958Z,17.1
2022-12-08T01:11:35.775Z,24.5
2022-12-08T01:13:39.583Z,15
2022-12-08T01:15:43.376Z,20
2022-12-08T01:17:47.160Z,21.8
2022-12-08T01:19:51.004Z,24.3
2022-12-08T01:21:57.722Z,23.9
2022-12-08T01:24:01.517Z,18.3
2022-12-08T01:26:05.314Z,21.9
2022-12-08T01:28:09.120Z,19.5
2022-12-08T01:30:12.917Z,22.9
2022-12-08T01:32:16.736Z,20.9
2022-12-08T01:34:20.500Z,23.1
2022-12-08T01:36:27.242Z,22.9
2022-12-08T01:38:31.048Z,22.4
2022-12-08T01:40:34.878Z,22.5
2022-12-08T01:42:58.870Z,37.1
2022-12-08T01:45:02.764Z,34.5
2022-12-08T01:49:13.008Z,25.2
2022-12-08T01:51:16.849Z,22.5
2022-12-08T01:53:20.644Z,32.7
2022-12-08T01:55:24.447Z,25.7
2022-12-08T01:57:28.267Z,28.1
2022-12-08T01:59:32.067Z,29.5
2022-12-08T02:01:36.024Z,39.2
2022-12-08T02:03:42.527Z,28.1
2022-12-08T02:05:46.329Z,19.9
2022-12-08T02:07:50.248Z,21
2022-12-08T02:09:54.020Z,29.8
2022-12-08T02:11:57.828Z,30
2022-12-08T02:14:01.622Z,29.2
2022-12-08T02:16:05.545Z,20.4
2022-12-08T02:18:12.213Z,40.4
2022-12-08T02:20:16.025Z,35.4
2022-12-08T02:22:19.820Z,25.7
2022-12-08T02:24:23.626Z,24.1
2022-12-08T02:26:27.461Z,28
2022-12-08T02:28:31.261Z,43
2022-12-08T02:30:35.195Z,33.2
2022-12-08T02:32:41.811Z,35.3
2022-12-08T02:34:45.624Z,22.5
2022-12-08T02:36:49.466Z,31.2
2022-12-08T02:37:52.850Z,29.7
2022-12-08T02:42:00.261Z,26
2022-12-08T02:46:10.909Z,27.7
2022-12-08T02:50:18.552Z,17.5
2022-12-08T02:54:26.143Z,20.2
2022-12-08T02:58:33.711Z,21.1
2022-12-08T03:00:41.927Z,20
2022-12-08T03:02:45.806Z,25.4
2022-12-08T03:04:49.430Z,14.2
2022-12-08T03:06:53.146Z,19.7
2022-12-08T03:08:56.964Z,39.4
2022-12-08T03:11:00.681Z,14.1
2022-12-08T03:13:04.409Z,15.6
2022-12-08T03:15:11.047Z,22
2022-12-08T03:17:14.756Z,18.8
2022-12-08T03:21:22.201Z,17
2022-12-08T03:27:33.493Z,15.8
2022-12-08T03:31:43.816Z,24.1
2022-12-08T03:33:47.667Z,26.6
2022-12-08T03:36:54.840Z,19.8
2022-12-08T03:38:58.583Z,15.8
2022-12-08T03:41:02.368Z,20.1
2022-12-08T03:43:09.120Z,20.2
2022-12-08T03:45:12.982Z,20.6
2022-12-08T03:47:16.786Z,18.8
2022-12-08T03:49:20.632Z,22.7
2022-12-08T03:51:24.410Z,21.2
2022-12-08T03:55:32.045Z,21.6
2022-12-08T03:57:38.796Z,26.2
2022-12-08T03:59:42.596Z,19.8
2022-12-08T04:01:46.492Z,19.3
2022-12-08T04:03:50.261Z,22
2022-12-08T04:05:54.104Z,22.8
2022-12-08T04:07:57.911Z,16.2
2022-12-08T04:10:01.987Z,24.6
2022-12-08T04:12:08.416Z,25.1
2022-12-08T04:14:12.154Z,32.8
2022-12-08T04:16:15.980Z,18.2
2022-12-08T04:18:19.698Z,18.3
2022-12-08T04:20:23.615Z,21.7
2022-12-08T04:22:27.313Z,20.9
2022-12-08T04:24:31.152Z,18.5
2022-12-08T04:26:37.790Z,23.8
2022-12-08T04:28:41.525Z,19.8
2022-12-08T04:30:45.345Z,21.9
2022-12-08T04:33:52.465Z,13.6
2022-12-08T04:44:14.342Z,21.6
2022-12-08T04:46:18.249Z,20
2022-12-08T04:48:21.908Z,14.8
2022-12-08T04:50:25.735Z,15.6
2022-12-08T04:52:29.592Z,16.1
2022-12-08T04:54:36.233Z,13.4
2022-12-08T04:56:40.104Z,18.5
2022-12-08T04:58:43.769Z,9.7
2022-12-08T05:00:47.628Z,16.8
2022-12-08T05:02:51.560Z,14.7
2022-12-08T05:04:55.279Z,15.8
2022-12-08T05:06:59.093Z,14.6
2022-12-08T05:09:05.837Z,15.7
2022-12-08T05:11:09.686Z,14.4
2022-12-08T05:13:13.513Z,8.7
2022-12-08T05:15:17.310Z,12
2022-12-08T05:19:24.769Z,10.6
2022-12-08T05:21:28.602Z,11.5
2022-12-08T05:23:35.263Z,16
2022-12-08T05:25:39.104Z,10.8
2022-12-08T05:27:42.916Z,17.8
2022-12-08T05:30:12.711Z,10.5
2022-12-08T05:32:16.422Z,11.9
2022-12-08T05:34:20.252Z,13.2
2022-12-08T05:36:26.996Z,11.7
2022-12-08T05:38:30.740Z,11.9
2022-12-08T05:40:34.588Z,8.9
2022-12-08T05:42:38.293Z,12.2
2022-12-08T05:44:42.117Z,15.1
2022-12-08T05:46:45.926Z,9.7
2022-12-08T05:48:49.783Z,11.2
2022-12-08T05:55:03.761Z,13.3
2022-12-08T06:01:15.152Z,4.9
2022-12-08T06:03:18.980Z,6.1
2022-12-08T06:05:25.557Z,6.3
2022-12-08T06:07:29.266Z,6
2022-12-08T06:09:33.020Z,7.1
2022-12-08T06:11:36.744Z,4.5
2022-12-08T06:13:40.543Z,5.1
2022-12-08T06:15:44.374Z,3.6
2022-12-08T06:17:48.091Z,8.5
2022-12-08T06:19:54.649Z,3.6
2022-12-08T06:21:58.456Z,6
2022-12-08T06:24:02.296Z,7.6
2022-12-08T06:25:08.539Z,5.6
2022-12-08T06:27:09.377Z,6
2022-12-08T06:29:13.093Z,7
2022-12-08T06:31:17.083Z,8.7
2022-12-08T06:33:23.535Z,3.8
2022-12-08T06:35:27.278Z,5.6
2022-12-08T06:37:31.073Z,6.4
2022-12-08T06:43:42.396Z,5.5
2022-12-08T06:45:46.283Z,4.3
2022-12-08T06:47:52.948Z,9.1
2022-12-08T06:49:56.764Z,6.8
2022-12-08T06:52:00.588Z,5.6
2022-12-08T06:54:04.404Z,6.7
2022-12-08T06:56:08.202Z,7.3
2022-12-08T06:58:11.999Z,8.1
2022-12-08T07:00:15.835Z,4.9
2022-12-08T07:02:22.608Z,6.1
2022-12-08T07:04:26.329Z,6.5
2022-12-08T07:06:30.156Z,12.9
2022-12-08T07:08:34.086Z,7.5
2022-12-08T07:10:37.768Z,6.3
2022-12-08T07:12:41.560Z,4.8
2022-12-08T07:16:52.038Z,13.6
2022-12-08T07:18:55.780Z,10.1
2022-12-08T07:20:59.567Z,10
2022-12-08T07:22:02.936Z,11.9
2022-12-08T07:24:06.750Z,13.5
2022-12-08T07:26:10.547Z,13.8
2022-12-08T07:28:14.348Z,11.6
2022-12-08T07:30:21.058Z,12.4
2022-12-08T07:32:24.868Z,19
2022-12-08T07:34:28.673Z,9
2022-12-08T07:36:32.496Z,12.1
2022-12-08T07:38:36.305Z,11.5
2022-12-08T07:40:40.128Z,9.4
2022-12-08T07:42:43.930Z,9.2
2022-12-08T07:46:54.348Z,12.5
2022-12-08T07:48:58.144Z,10.8
2022-12-08T07:51:01.860Z,10.3
2022-12-08T07:53:05.643Z,9.9
2022-12-08T07:55:09.442Z,8.4
2022-12-08T07:57:13.267Z,6
2022-12-08T08:01:24.004Z,9.3
2022-12-08T08:03:27.581Z,14.8
2022-12-08T08:05:31.395Z,8.6
2022-12-08T08:07:35.236Z,12.3
2022-12-08T08:09:39.063Z,6.5
2022-12-08T08:11:43.075Z,8.3
2022-12-08T08:15:53.292Z,7.9
2022-12-08T08:17:57.010Z,19.4
2022-12-08T08:19:00.337Z,8.1
2022-12-08T08:21:22.099Z,11.9
2022-12-08T08:23:07.948Z,10.3
2022-12-08T08:25:11.768Z,14.6
2022-12-08T08:27:18.529Z,19.1
2022-12-08T08:29:22.310Z,4.3
2022-12-08T08:31:26.206Z,6.1
2022-12-08T08:33:29.810Z,10.9
2022-12-08T08:35:33.652Z,11.2
2022-12-08T08:37:37.451Z,7.7
2022-12-08T08:39:41.245Z,9.2
2022-12-08T08:41:47.992Z,6.2
2022-12-08T08:43:51.779Z,9.6
2022-12-08T08:45:55.534Z,12.9
2022-12-08T08:47:59.291Z,5.8
2022-12-08T08:50:03.382Z,6.5
2022-12-08T08:52:06.900Z,4.3
2022-12-08T08:54:10.731Z,11.8
2022-12-08T08:56:17.445Z,4.8
2022-12-08T08:58:21.274Z,5.5
2022-12-08T09:00:26.538Z,4.5
2022-12-08T09:02:30.244Z,9.2
2022-12-08T09:04:34.140Z,5.1
2022-12-08T09:06:37.890Z,9.1
2022-12-08T09:08:41.551Z,9.3
2022-12-08T09:10:48.276Z,6.4
2022-12-08T09:12:52.121Z,7.4
2022-12-08T09:14:55.929Z,3.9
2022-12-08T09:17:23.879Z,4.5
2022-12-08T09:23:38.210Z,6.1
2022-12-08T09:25:42.059Z,10
2022-12-08T09:27:45.840Z,10.1
2022-12-08T09:29:49.659Z,6.2
2022-12-08T09:31:53.529Z,6.6
2022-12-08T09:33:57.318Z,14.1
2022-12-08T09:36:01.152Z,11.1
2022-12-08T09:38:07.851Z,7.4
2022-12-08T09:40:11.680Z,14.4
2022-12-08T09:42:15.487Z,7.3
2022-12-08T09:44:19.325Z,5.3
2022-12-08T09:46:23.194Z,5.1
2022-12-08T09:48:26.978Z,11.7
2022-12-08T09:50:30.786Z,10
2022-12-08T09:52:37.637Z,4.4
2022-12-08T09:54:41.256Z,9.2
2022-12-08T09:56:45.166Z,12.6
2022-12-08T09:58:48.906Z,11.5
2022-12-08T10:00:52.753Z,10
2022-12-08T10:02:56.609Z,8
2022-12-08T10:05:00.493Z,8.5
2022-12-08T10:07:07.126Z,12.3
2022-12-08T10:09:12.578Z,9.7
2022-12-08T10:11:14.859Z,11.9
2022-12-08T10:14:22.029Z,10.6
2022-12-08T10:16:29.781Z,4.1
2022-12-08T10:18:29.699Z,10.8
2022-12-08T10:20:36.439Z,6.7
2022-12-08T10:22:44.766Z,9.9
2022-12-08T10:24:44.090Z,5
2022-12-08T10:26:47.951Z,11.3
2022-12-08T10:28:51.782Z,8.4
2022-12-08T10:30:55.549Z,7
2022-12-08T10:32:59.357Z,9.2
2022-12-08T10:35:06.101Z,9.7
2022-12-08T10:37:09.800Z,8.4
2022-12-08T10:39:13.558Z,7.6
2022-12-08T10:41:17.414Z,4.4
2022-12-08T10:43:21.272Z,5.6
2022-12-08T10:45:25.127Z,4.3
2022-12-08T10:47:28.838Z,8.2
2022-12-08T10:49:35.481Z,4.2
2022-12-08T10:51:39.326Z,5.3
2022-12-08T10:53:43.158Z,6.1
2022-12-08T10:55:46.976Z,6.9
2022-12-08T10:57:50.831Z,7.6
2022-12-08T10:59:54.716Z,4.9
2022-12-08T11:01:58.780Z,6.6
2022-12-08T11:04:05.277Z,4.2
2022-12-08T11:06:10.848Z,5
2022-12-08T11:08:12.809Z,3.9
2022-12-08T11:11:23.165Z,3.5
2022-12-08T11:13:23.788Z,8
2022-12-08T11:15:27.531Z,3.5
2022-12-08T11:19:38.183Z,4.8
2022-12-08T11:21:41.995Z,4.4
2022-12-08T11:23:45.716Z,3.2
2022-12-08T11:25:49.439Z,4.6
2022-12-08T11:27:53.283Z,4.3
2022-12-08T11:29:57.149Z,2.1
2022-12-08T11:32:03.984Z,4.2
2022-12-08T11:34:07.744Z,12.1
2022-12-08T11:36:11.599Z,5.3
2022-12-08T11:38:21.591Z,4.8
2022-12-08T11:40:19.192Z,7.8
2022-12-08T11:42:23.017Z,2.8
2022-12-08T11:44:26.860Z,5.3
2022-12-08T11:46:33.745Z,8.2
2022-12-08T11:48:37.466Z,3.2
2022-12-08T11:58:56.460Z,2.6
2022-12-08T12:01:03.243Z,7.4
2022-12-08T12:03:07.027Z,3.2
2022-12-08T12:05:10.819Z,4.7
2022-12-08T12:14:32.356Z,2.3
2022-12-08T12:16:36.247Z,5.2
2022-12-08T12:18:40.047Z,3.4
2022-12-08T12:20:43.797Z,3.5
2022-12-08T12:22:47.550Z,2
2022-12-08T12:24:51.390Z,1.7
2022-12-08T12:29:02.075Z,3.2
2022-12-08T12:31:06.047Z,1.7
2022-12-08T12:33:09.756Z,2.5
2022-12-08T12:37:17.348Z,3
2022-12-08T12:39:21.211Z,3.5
2022-12-08T12:41:25.622Z,3
2022-12-08T12:43:31.527Z,2.9
2022-12-08T12:45:35.261Z,4.8
2022-12-08T12:47:39.035Z,4.3
2022-12-08T12:49:42.777Z,9.1
2022-12-08T12:51:46.614Z,3.6
2022-12-08T12:53:50.458Z,1.8
2022-12-08T12:55:54.214Z,3.6
2022-12-08T13:02:08.690Z,6.2
2022-12-08T13:04:38.274Z,2.6
2022-12-08T13:06:42.024Z,5.5
2022-12-08T13:08:45.777Z,11.3
2022-12-08T13:10:52.348Z,1.9
2022-12-08T13:12:56.181Z,1.6
2022-12-08T13:15:00.014Z,1.9
2022-12-08T13:17:03.982Z,2.5
2022-12-08T13:19:07.713Z,3.1
2022-12-08T13:21:11.555Z,2.2
2022-12-08T13:23:15.359Z,2.4
2022-12-08T13:25:22.108Z,3.7
2022-12-08T13:27:25.976Z,1.1
2022-12-08T13:29:29.820Z,7.9
2022-12-08T13:31:33.645Z,1.2
2022-12-08T13:33:37.346Z,9.8
2022-12-08T13:35:41.225Z,0.9
2022-12-08T13:37:53.911Z,8.5
2022-12-08T13:39:51.790Z,3.2
2022-12-08T13:41:55.619Z,2
2022-12-08T13:57:00.791Z,1.7
2022-12-08T13:58:29.041Z,2.4
2022-12-08T13:59:32.435Z,1.1
2022-12-08T14:01:36.184Z,3.2
2022-12-08T14:06:10.464Z,1.4
2022-12-08T14:09:54.207Z,1.8
2022-12-08T14:14:01.822Z,3
2022-12-08T14:20:13.152Z,2.2
2022-12-08T14:24:23.465Z,11.3
2022-12-08T14:28:30.980Z,5.1
2022-12-08T14:30:34.792Z,2.2
2022-12-08T14:32:38.573Z,6
2022-12-08T14:34:42.383Z,3.9
2022-12-08T14:36:48.975Z,2.2
2022-12-08T14:38:52.672Z,12.2
2022-12-08T14:45:04.048Z,3.8
2022-12-08T14:47:07.952Z,19.3
2022-12-08T14:49:11.638Z,6.9
2022-12-08T14:51:18.343Z,2.2
2022-12-08T14:53:22.206Z,7.1
2022-12-08T14:55:25.934Z,11.8
2022-12-08T14:56:29.318Z,4
2022-12-08T14:58:33.109Z,5.8
2022-12-08T15:00:36.857Z,2.2
2022-12-08T15:02:40.652Z,4.3
2022-12-08T15:04:47.449Z,4.5
2022-12-08T15:06:51.120Z,11.6
2022-12-08T15:08:54.889Z,3.7
2022-12-08T15:10:58.677Z,14.5
2022-12-08T15:13:03.979Z,5.3
2022-12-08T15:15:07.749Z,13.1
2022-12-08T15:17:11.566Z,4.9
2022-12-08T15:19:18.225Z,4.6
2022-12-08T15:21:22.084Z,5.3
2022-12-08T15:23:25.824Z,4.7
2022-12-08T15:25:29.650Z,4.3
2022-12-08T15:27:40.931Z,4.1
2022-12-08T15:29:37.200Z,6.5
2022-12-08T15:33:47.697Z,3.1
2022-12-08T15:35:51.488Z,10.9
2022-12-08T15:37:55.268Z,4.5
2022-12-08T15:39:59.053Z,2.5
2022-12-08T15:42:02.822Z,4.4
2022-12-08T15:44:06.591Z,6.8
2022-12-08T15:46:10.517Z,4.3
2022-12-08T15:48:17.064Z,7.5
2022-12-08T15:55:35.560Z,6.1
2022-12-08T16:01:46.043Z,17.9
2022-12-08T16:06:26.921Z,9.4
2022-12-08T16:07:57.815Z,10.4
2022-12-08T16:10:01.263Z,15.6
2022-12-08T16:12:07.119Z,10
2022-12-08T16:16:15.183Z,25.2
2022-12-08T16:18:18.965Z,21.7
2022-12-08T16:20:32.712Z,13.7
2022-12-08T16:23:03.691Z,13.8
2022-12-08T16:24:30.329Z,16.9
2022-12-08T16:27:50.588Z,13.5
2022-12-08T16:28:54.081Z,22.7
2022-12-08T16:30:44.624Z,18.8
2022-12-08T16:32:48.451Z,22.8
2022-12-08T16:34:52.256Z,18.1
2022-12-08T16:38:59.711Z,20.4
2022-12-08T16:41:03.423Z,12.5
2022-12-08T16:45:13.890Z,13.4
2022-12-08T16:49:21.273Z,12.8
2022-12-08T16:51:51.070Z,18.1
2022-12-08T16:53:54.771Z,15.9
2022-12-08T16:55:58.546Z,12.3
2022-12-08T16:58:05.269Z,27.9
2022-12-08T17:00:09.031Z,21.4
2022-12-08T17:02:16.401Z,22.3
2022-12-08T17:04:31.298Z,21.8
2022-12-08T17:06:20.326Z,31.1
2022-12-08T17:08:24.103Z,18.5
2022-12-08T17:10:27.869Z,35.8
2022-12-08T17:12:34.550Z,29.6
2022-12-08T17:14:38.314Z,25.5
2022-12-08T17:16:42.181Z,23.8
2022-12-08T17:22:53.496Z,23.2
2022-12-08T17:27:04.004Z,23.2
2022-12-08T17:31:11.593Z,22.7
2022-12-08T17:37:22.948Z,27.1
2022-12-08T17:39:26.734Z,29.5
2022-12-08T17:41:33.391Z,26.4
2022-12-08T17:43:37.190Z,26.8
2022-12-08T17:45:41.030Z,36.8
2022-12-08T17:46:49.111Z,26.5
2022-12-08T17:48:48.020Z,29.5
2022-12-08T17:50:51.814Z,38.5
2022-12-08T17:52:55.580Z,33.6
2022-12-08T17:55:02.309Z,38.4
2022-12-08T17:57:06.098Z,47.9
2022-12-08T17:59:09.845Z,28.7
2022-12-08T18:01:13.551Z,22.7
2022-12-08T18:03:17.328Z,27.4
2022-12-08T18:05:21.096Z,33.9
2022-12-08T18:07:24.787Z,32.6
2022-12-08T18:09:31.543Z,34.2
2022-12-08T18:11:35.292Z,32.2
2022-12-08T18:13:39.062Z,28.6
2022-12-08T18:15:42.855Z,31.8
2022-12-08T18:17:46.654Z,30.8
2022-12-08T18:19:50.485Z,37.4
2022-12-08T18:21:54.265Z,34.8
2022-12-08T18:24:01.153Z,34
2022-12-08T18:26:04.655Z,36.8
2022-12-08T18:28:08.452Z,31.7
2022-12-08T18:30:12.256Z,39.3
2022-12-08T18:32:16.055Z,44.3
2022-12-08T18:34:19.821Z,40.2
2022-12-08T18:36:23.623Z,38
2022-12-08T18:38:30.286Z,29.8
2022-12-08T18:40:34.079Z,30.3
2022-12-08T18:42:37.853Z,29.8
2022-12-08T18:43:41.359Z,34.4
2022-12-08T18:45:45.269Z,31.9
2022-12-08T18:47:49.001Z,43.1
2022-12-08T18:49:52.755Z,40.6
2022-12-08T18:51:59.312Z,36.3
2022-12-08T18:54:03.123Z,47.6
2022-12-08T18:56:06.915Z,40.3
2022-12-08T18:58:10.749Z,40.7
2022-12-08T19:00:14.584Z,42.5
2022-12-08T19:04:29.863Z,56.5
2022-12-08T19:06:28.834Z,42.7
2022-12-08T19:08:32.668Z,34.5
2022-12-08T19:10:36.356Z,48.9
2022-12-08T19:14:43.955Z,58.4
2022-12-08T19:16:47.773Z,51.5
2022-12-08T19:18:51.575Z,41.8
2022-12-08T19:20:58.560Z,43.7
2022-12-08T19:23:02.129Z,40.9
2022-12-08T19:25:05.965Z,38.8
2022-12-08T19:27:09.782Z,36.8
2022-12-08T19:29:13.598Z,34.3
2022-12-08T19:33:21.205Z,37
2022-12-08T19:37:31.642Z,36.4
2022-12-08T19:39:35.463Z,30.8
2022-12-08T19:40:38.835Z,36.2
2022-12-08T19:42:42.645Z,33.3
2022-12-08T19:44:46.488Z,40.1
2022-12-08T19:46:50.440Z,33.9
2022-12-08T19:48:57.070Z,29.7
2022-12-08T19:51:00.855Z,59
2022-12-08T19:53:04.554Z,24.8
2022-12-08T19:55:08.400Z,30.9
2022-12-08T19:57:12.178Z,33.2
2022-12-08T19:59:16.014Z,36.5
2022-12-08T20:01:19.957Z,31.6
2022-12-08T20:03:26.660Z,27.2
2022-12-08T20:05:30.378Z,38.1
2022-12-08T20:07:34.209Z,33.2
2022-12-08T20:11:41.725Z,30.1
2022-12-08T20:13:45.507Z,35.2
2022-12-08T20:17:56.037Z,38.9
2022-12-08T20:22:03.546Z,33.8
2022-12-08T20:24:07.307Z,30.9
2022-12-08T20:32:25.431Z,49.7
2022-12-08T20:36:32.858Z,45.5
2022-12-08T20:39:02.681Z,30.5
2022-12-08T20:41:06.481Z,36.6
2022-12-08T20:43:10.184Z,35.6
2022-12-08T20:45:16.975Z,37
2022-12-08T20:49:25.568Z,24.3
2022-12-08T20:51:31.848Z,33.5
2022-12-08T20:53:32.222Z,27.3
2022-12-08T20:55:36.031Z,29
2022-12-08T21:01:50.266Z,39.3
2022-12-08T21:03:54.359Z,32.6
2022-12-08T21:05:57.970Z,34.9
2022-12-08T21:08:01.868Z,34.7
2022-12-08T21:18:24.812Z,28.8
2022-12-08T21:20:28.325Z,36
2022-12-08T21:22:32.139Z,27
2022-12-08T21:24:36.052Z,36.4
2022-12-08T21:26:39.752Z,31.4
2022-12-08T21:28:46.364Z,35.3
2022-12-08T21:30:50.208Z,34.3
2022-12-08T21:32:54.106Z,36.3
2022-12-08T21:33:57.326Z,35.4
2022-12-08T21:38:04.741Z,36.2
2022-12-08T21:42:15.275Z,41.8
2022-12-08T21:44:18.915Z,35.8
2022-12-08T21:46:22.774Z,33.8
2022-12-08T21:48:26.805Z,43
2022-12-08T21:56:44.730Z,42
2022-12-08T22:00:52.467Z,50.1
2022-12-08T22:02:56.224Z,41.7
2022-12-08T22:07:03.560Z,37.6
2022-12-08T22:15:21.792Z,35.8
2022-12-08T22:17:25.726Z,42.2
2022-12-08T22:19:29.111Z,41
2022-12-08T22:21:32.894Z,44.8
2022-12-08T22:23:36.611Z,37.9
2022-12-08T22:25:43.336Z,54.1
2022-12-08T22:27:47.120Z,38.8
2022-12-08T22:29:50.955Z,54.7
2022-12-08T22:30:54.338Z,48.1
2022-12-08T22:32:58.216Z,48.7
2022-12-08T22:35:01.901Z,47.9
2022-12-08T22:37:05.627Z,54.5
2022-12-08T22:39:12.149Z,41.3
2022-12-08T22:41:16.070Z,49.3
2022-12-08T22:43:19.696Z,48.8
2022-12-08T22:45:23.797Z,45.4
2022-12-08T22:47:27.297Z,46.6
2022-12-08T22:49:31.107Z,40.2
2022-12-08T22:51:34.830Z,54.4
2022-12-08T22:53:41.462Z,45
2022-12-08T22:55:45.238Z,43.2
2022-12-08T22:57:49.225Z,45.4
2022-12-08T22:59:52.819Z,43.5
2022-12-08T23:01:56.871Z,54.8
2022-12-08T23:04:00.673Z,44.1
2022-12-08T23:06:04.548Z,50.7
2022-12-08T23:08:11.069Z,48.3
2022-12-08T23:10:14.832Z,47
2022-12-08T23:12:18.757Z,44.8
2022-12-08T23:14:22.371Z,48
2022-12-08T23:16:26.354Z,52.1
2022-12-08T23:18:29.971Z,44.5
2022-12-08T23:20:33.913Z,53.2
2022-12-08T23:24:44.183Z,50.9
2022-12-08T23:26:47.984Z,52
2022-12-08T23:27:51.256Z,47
2022-12-08T23:29:55.266Z,61
2022-12-08T23:31:59.062Z,39.4
2022-12-08T23:34:02.703Z,39
2022-12-08T23:36:09.528Z,44.1
2022-12-08T23:38:13.199Z,46.8
2022-12-08T23:40:17.024Z,42.5
2022-12-08T23:42:20.961Z,47.5
2022-12-08T23:44:24.543Z,48.5
2022-12-08T23:46:28.459Z,44.4
2022-12-08T23:48:32.163Z,46.1
2022-12-08T23:52:42.710Z,56.6
2022-12-08T23:58:54.372Z,49.9
